sensor_id;sensor_type;location;lat;lon;timestamp;temperature;humidity
7192;DHT22;3637;51.494;11.958;2023-03-01T00:00:43;0.90;99.90
7192;DHT22;3637;51.494;11.958;2023-03-01T00:03:47;0.40;99.90
7192;DHT22;3637;51.494;11.958;2023-03-01T00:06:49;0.30;99.90
7192;DHT22;3637;51.494;11.958;2023-03-01T00:09:50;0.30;99.90
7192;DHT22;3637;51.494;11.958;2023-03-01T00:12:54;0.40;99.90
7192;DHT22;3637;51.494;11.958;2023-03-01T00:15:58;0.30;99.90
7192;DHT22;3637;51.494;11.958;2023-03-01T00:19:01;0.70;99.90
7192;DHT22;3637;51.494;11.958;2023-03-01T00:22:03;0.30;99.90
7192;DHT22;3637;51.494;11.958;2023-03-01T00:25:05;-0.20;99.90
7192;DHT22;3637;51.494;11.958;2023-03-01T00:28:09;0.20;99.90
7192;DHT22;3637;51.494;11.958;2023-03-01T00:31:13;0.10;99.90
7192;DHT22;3637;51.494;11.958;2023-03-01T00:34:15;0.10;99.90
7192;DHT22;3637;51.494;11.958;2023-03-01T00:37:17;0.10;99.90
7192;DHT22;3637;51.494;11.958;2023-03-01T00:40:19;0.00;99.90
7192;DHT22;3637;51.494;11.958;2023-03-01T00:43:22;0.00;99.90
7192;DHT22;3637;51.494;11.958;2023-03-01T00:46:25;-0.10;99.90
7192;DHT22;3637;51.494;11.958;2023-03-01T00:49:27;-0.10;99.90
7192;DHT22;3637;51.494;11.958;2023-03-01T00:52:29;-0.10;99.90
7192;DHT22;3637;51.494;11.958;2023-03-01T00:55:31;-0.10;99.90
7192;DHT22;3637;51.494;11.958;2023-03-01T00:58:37;-0.10;99.90
7192;DHT22;3637;51.494;11.958;2023-03-01T01:01:39;0.00;99.90
7192;DHT22;3637;51.494;11.958;2023-03-01T01:04:41;0.30;99.90
7192;DHT22;3637;51.494;11.958;2023-03-01T01:07:43;0.00;99.90
7192;DHT22;3637;51.494;11.958;2023-03-01T01:10:45;0.40;99.90
7192;DHT22;3637;51.494;11.958;2023-03-01T01:13:48;-0.10;99.90
7192;DHT22;3637;51.494;11.958;2023-03-01T01:16:50;0.70;99.90
7192;DHT22;3637;51.494;11.958;2023-03-01T01:19:52;0.10;99.90
7192;DHT22;3637;51.494;11.958;2023-03-01T01:22:54;0.10;99.90
7192;DHT22;3637;51.494;11.958;2023-03-01T01:25:56;0.40;99.90
7192;DHT22;3637;51.494;11.958;2023-03-01T01:29:01;0.10;99.90
7192;DHT22;3637;51.494;11.958;2023-03-01T01:32:04;0.00;99.90
7192;DHT22;3637;51.494;11.958;2023-03-01T01:35:07;-0.10;99.90
7192;DHT22;3637;51.494;11.958;2023-03-01T01:38:09;-0.10;99.90
7192;DHT22;3637;51.494;11.958;2023-03-01T01:41:12;-0.10;99.90
7192;DHT22;3637;51.494;11.958;2023-03-01T01:44:19;-0.10;99.90
7192;DHT22;3637;51.494;11.958;2023-03-01T01:47:22;0.60;99.90
7192;DHT22;3637;51.494;11.958;2023-03-01T01:50:25;-0.20;99.90
7192;DHT22;3637;51.494;11.958;2023-03-01T01:53:27;-0.20;99.90
7192;DHT22;3637;51.494;11.958;2023-03-01T01:56:30;-0.10;99.90
7192;DHT22;3637;51.494;11.958;2023-03-01T01:59:34;0.30;99.90
7192;DHT22;3637;51.494;11.958;2023-03-01T02:02:36;-0.10;99.90
7192;DHT22;3637;51.494;11.958;2023-03-01T02:05:45;0.00;99.90
7192;DHT22;3637;51.494;11.958;2023-03-01T02:08:49;0.10;99.90
7192;DHT22;3637;51.494;11.958;2023-03-01T02:11:53;0.00;99.90
7192;DHT22;3637;51.494;11.958;2023-03-01T02:14:56;0.10;99.90
7192;DHT22;3637;51.494;11.958;2023-03-01T02:18:02;1.40;99.90
7192;DHT22;3637;51.494;11.958;2023-03-01T02:21:12;0.10;99.90
7192;DHT22;3637;51.494;11.958;2023-03-01T02:24:25;0.00;99.90
7192;DHT22;3637;51.494;11.958;2023-03-01T02:27:35;0.00;99.90
7192;DHT22;3637;51.494;11.958;2023-03-01T02:30:40;-0.10;99.90
7192;DHT22;3637;51.494;11.958;2023-03-01T02:34:03;-0.10;99.90
7192;DHT22;3637;51.494;11.958;2023-03-01T02:37:09;0.40;99.90
7192;DHT22;3637;51.494;11.958;2023-03-01T02:40:15;-0.30;99.90
7192;DHT22;3637;51.494;11.958;2023-03-01T02:43:19;-0.30;99.90
7192;DHT22;3637;51.494;11.958;2023-03-01T02:46:25;0.60;99.90
7192;DHT22;3637;51.494;11.958;2023-03-01T02:49:29;-0.20;99.90
7192;DHT22;3637;51.494;11.958;2023-03-01T02:52:43;-0.10;99.90
7192;DHT22;3637;51.494;11.958;2023-03-01T02:55:46;-0.20;99.90
7192;DHT22;3637;51.494;11.958;2023-03-01T02:58:51;0.80;99.90
7192;DHT22;3637;51.494;11.958;2023-03-01T03:01:55;-0.20;99.90
7192;DHT22;3637;51.494;11.958;2023-03-01T03:04:56;-0.30;99.90
7192;DHT22;3637;51.494;11.958;2023-03-01T03:08:03;0.30;99.90
7192;DHT22;3637;51.494;11.958;2023-03-01T03:11:05;-0.20;99.90
7192;DHT22;3637;51.494;11.958;2023-03-01T03:14:07;1.00;99.90
7192;DHT22;3637;51.494;11.958;2023-03-01T03:17:14;-0.30;99.90
7192;DHT22;3637;51.494;11.958;2023-03-01T03:20:20;-0.30;99.90
7192;DHT22;3637;51.494;11.958;2023-03-01T03:23:22;-0.40;99.90
7192;DHT22;3637;51.494;11.958;2023-03-01T03:26:24;0.30;99.90
7192;DHT22;3637;51.494;11.958;2023-03-01T03:29:26;-0.20;99.90
7192;DHT22;3637;51.494;11.958;2023-03-01T03:32:30;-0.30;99.90
7192;DHT22;3637;51.494;11.958;2023-03-01T03:35:33;-0.30;99.90
7192;DHT22;3637;51.494;11.958;2023-03-01T03:38:36;-0.30;99.90
7192;DHT22;3637;51.494;11.958;2023-03-01T03:41:38;0.50;99.90
7192;DHT22;3637;51.494;11.958;2023-03-01T03:44:39;-0.40;99.90
7192;DHT22;3637;51.494;11.958;2023-03-01T03:47:43;-0.50;99.90
7192;DHT22;3637;51.494;11.958;2023-03-01T03:50:48;0.10;99.90
7192;DHT22;3637;51.494;11.958;2023-03-01T03:53:51;-0.70;99.90
7192;DHT22;3637;51.494;11.958;2023-03-01T03:56:52;-0.60;99.90
7192;DHT22;3637;51.494;11.958;2023-03-01T03:59:54;-0.70;99.90
7192;DHT22;3637;51.494;11.958;2023-03-01T04:02:58;-0.70;99.90
7192;DHT22;3637;51.494;11.958;2023-03-01T04:06:00;0.60;99.90
7192;DHT22;3637;51.494;11.958;2023-03-01T04:09:02;-0.70;99.90
7192;DHT22;3637;51.494;11.958;2023-03-01T04:12:04;-0.50;99.90
7192;DHT22;3637;51.494;11.958;2023-03-01T04:15:10;-0.70;99.90
7192;DHT22;3637;51.494;11.958;2023-03-01T04:18:17;-0.50;99.90
7192;DHT22;3637;51.494;11.958;2023-03-01T04:21:22;-0.60;99.90
7192;DHT22;3637;51.494;11.958;2023-03-01T04:24:25;-0.60;99.90
7192;DHT22;3637;51.494;11.958;2023-03-01T04:27:27;-0.40;99.90
7192;DHT22;3637;51.494;11.958;2023-03-01T04:30:28;-0.60;99.90
7192;DHT22;3637;51.494;11.958;2023-03-01T04:33:37;-0.80;99.90
7192;DHT22;3637;51.494;11.958;2023-03-01T04:36:39;0.50;99.90
7192;DHT22;3637;51.494;11.958;2023-03-01T04:39:41;-0.20;99.90
7192;DHT22;3637;51.494;11.958;2023-03-01T04:42:46;-0.70;99.90
7192;DHT22;3637;51.494;11.958;2023-03-01T04:45:47;-0.70;99.90
7192;DHT22;3637;51.494;11.958;2023-03-01T04:48:51;-0.80;99.90
7192;DHT22;3637;51.494;11.958;2023-03-01T04:51:52;-0.80;99.90
7192;DHT22;3637;51.494;11.958;2023-03-01T04:54:54;-0.50;99.90
7192;DHT22;3637;51.494;11.958;2023-03-01T04:57:56;-0.80;99.90
7192;DHT22;3637;51.494;11.958;2023-03-01T05:01:10;-0.80;99.90
7192;DHT22;3637;51.494;11.958;2023-03-01T05:04:18;-0.70;99.90
7192;DHT22;3637;51.494;11.958;2023-03-01T05:07:20;-0.70;99.90
7192;DHT22;3637;51.494;11.958;2023-03-01T05:10:26;-0.50;99.90
7192;DHT22;3637;51.494;11.958;2023-03-01T05:13:29;-0.70;99.90
7192;DHT22;3637;51.494;11.958;2023-03-01T05:16:31;-0.70;99.90
7192;DHT22;3637;51.494;11.958;2023-03-01T05:19:34;-1.10;99.90
7192;DHT22;3637;51.494;11.958;2023-03-01T05:22:36;-0.70;99.90
7192;DHT22;3637;51.494;11.958;2023-03-01T05:25:38;-0.70;99.90
7192;DHT22;3637;51.494;11.958;2023-03-01T05:28:41;-0.70;99.90
7192;DHT22;3637;51.494;11.958;2023-03-01T05:31:44;-0.20;99.90
7192;DHT22;3637;51.494;11.958;2023-03-01T05:34:48;-0.90;99.90
7192;DHT22;3637;51.494;11.958;2023-03-01T05:37:50;-1.00;99.90
7192;DHT22;3637;51.494;11.958;2023-03-01T05:40:52;-1.00;99.90
7192;DHT22;3637;51.494;11.958;2023-03-01T05:43:54;-1.10;99.90
7192;DHT22;3637;51.494;11.958;2023-03-01T05:46:56;-1.10;99.90
7192;DHT22;3637;51.494;11.958;2023-03-01T05:49:59;-1.00;99.90
7192;DHT22;3637;51.494;11.958;2023-03-01T05:53:03;-0.50;99.90
7192;DHT22;3637;51.494;11.958;2023-03-01T05:56:06;-0.80;99.90
7192;DHT22;3637;51.494;11.958;2023-03-01T05:59:08;-1.20;99.90
7192;DHT22;3637;51.494;11.958;2023-03-01T06:02:09;-1.30;99.90
7192;DHT22;3637;51.494;11.958;2023-03-01T06:05:14;-1.20;99.90
7192;DHT22;3637;51.494;11.958;2023-03-01T06:08:16;-1.30;99.90
7192;DHT22;3637;51.494;11.958;2023-03-01T06:11:21;-1.00;99.90
7192;DHT22;3637;51.494;11.958;2023-03-01T06:14:23;-1.40;99.90
7192;DHT22;3637;51.494;11.958;2023-03-01T06:17:25;-1.30;99.90
7192;DHT22;3637;51.494;11.958;2023-03-01T06:20:29;-1.30;99.90
7192;DHT22;3637;51.494;11.958;2023-03-01T06:23:33;-1.00;99.90
7192;DHT22;3637;51.494;11.958;2023-03-01T06:26:35;-0.50;99.90
7192;DHT22;3637;51.494;11.958;2023-03-01T06:29:37;-1.10;99.90
7192;DHT22;3637;51.494;11.958;2023-03-01T06:32:39;-1.20;99.90
7192;DHT22;3637;51.494;11.958;2023-03-01T06:35:43;-1.20;99.90
7192;DHT22;3637;51.494;11.958;2023-03-01T06:38:48;-0.60;99.90
7192;DHT22;3637;51.494;11.958;2023-03-01T06:41:50;-1.20;99.90
7192;DHT22;3637;51.494;11.958;2023-03-01T06:44:52;-1.10;99.90
7192;DHT22;3637;51.494;11.958;2023-03-01T06:48:01;-1.30;99.90
7192;DHT22;3637;51.494;11.958;2023-03-01T06:51:05;-1.30;99.90
7192;DHT22;3637;51.494;11.958;2023-03-01T06:54:07;0.30;99.90
7192;DHT22;3637;51.494;11.958;2023-03-01T06:57:11;-1.00;99.90
7192;DHT22;3637;51.494;11.958;2023-03-01T07:00:14;-0.10;99.90
7192;DHT22;3637;51.494;11.958;2023-03-01T07:03:16;-1.00;99.90
7192;DHT22;3637;51.494;11.958;2023-03-01T07:10:34;-1.30;99.90
7192;DHT22;3637;51.494;11.958;2023-03-01T07:13:36;-0.70;99.90
7192;DHT22;3637;51.494;11.958;2023-03-01T07:16:38;-0.70;99.90
7192;DHT22;3637;51.494;11.958;2023-03-01T07:19:39;-0.50;99.90
7192;DHT22;3637;51.494;11.958;2023-03-01T07:26:17;-0.30;99.90
7192;DHT22;3637;51.494;11.958;2023-03-01T07:29:21;-0.20;99.90
7192;DHT22;3637;51.494;11.958;2023-03-01T07:32:23;-0.10;99.90
7192;DHT22;3637;51.494;11.958;2023-03-01T07:35:26;-0.10;99.90
7192;DHT22;3637;51.494;11.958;2023-03-01T07:38:29;0.00;99.90
7192;DHT22;3637;51.494;11.958;2023-03-01T07:41:33;-0.10;99.90
7192;DHT22;3637;51.494;11.958;2023-03-01T07:44:37;0.00;99.90
7192;DHT22;3637;51.494;11.958;2023-03-01T07:47:39;0.20;99.90
7192;DHT22;3637;51.494;11.958;2023-03-01T07:50:44;0.80;99.90
7192;DHT22;3637;51.494;11.958;2023-03-01T07:53:46;0.60;99.90
7192;DHT22;3637;51.494;11.958;2023-03-01T07:56:49;0.80;99.90
7192;DHT22;3637;51.494;11.958;2023-03-01T07:59:51;0.90;99.90
7192;DHT22;3637;51.494;11.958;2023-03-01T08:02:53;1.10;99.90
7192;DHT22;3637;51.494;11.958;2023-03-01T08:05:55;1.40;99.90
7192;DHT22;3637;51.494;11.958;2023-03-01T08:08:58;2.10;99.90
7192;DHT22;3637;51.494;11.958;2023-03-01T08:12:02;1.90;99.90
7192;DHT22;3637;51.494;11.958;2023-03-01T08:15:06;2.20;99.90
7192;DHT22;3637;51.494;11.958;2023-03-01T08:18:09;2.30;99.90
7192;DHT22;3637;51.494;11.958;2023-03-01T08:21:13;2.40;99.90
7192;DHT22;3637;51.494;11.958;2023-03-01T08:24:15;2.60;99.90
7192;DHT22;3637;51.494;11.958;2023-03-01T08:27:20;2.80;99.90
7192;DHT22;3637;51.494;11.958;2023-03-01T08:30:22;2.80;99.90
7192;DHT22;3637;51.494;11.958;2023-03-01T08:33:24;2.80;99.90
7192;DHT22;3637;51.494;11.958;2023-03-01T08:36:28;2.90;99.90
7192;DHT22;3637;51.494;11.958;2023-03-01T08:39:30;3.00;99.90
7192;DHT22;3637;51.494;11.958;2023-03-01T08:42:34;3.00;99.90
7192;DHT22;3637;51.494;11.958;2023-03-01T08:45:36;3.10;99.90
7192;DHT22;3637;51.494;11.958;2023-03-01T08:48:40;3.10;99.90
7192;DHT22;3637;51.494;11.958;2023-03-01T08:51:44;3.20;99.90
7192;DHT22;3637;51.494;11.958;2023-03-01T08:54:47;3.80;99.90
7192;DHT22;3637;51.494;11.958;2023-03-01T08:57:50;3.20;99.90
7192;DHT22;3637;51.494;11.958;2023-03-01T09:00:52;3.10;99.90
7192;DHT22;3637;51.494;11.958;2023-03-01T09:03:54;3.20;99.90
7192;DHT22;3637;51.494;11.958;2023-03-01T09:06:56;3.40;99.90
7192;DHT22;3637;51.494;11.958;2023-03-01T09:09:58;3.50;99.90
7192;DHT22;3637;51.494;11.958;2023-03-01T09:13:02;3.20;99.90
7192;DHT22;3637;51.494;11.958;2023-03-01T09:16:06;4.80;99.90
7192;DHT22;3637;51.494;11.958;2023-03-01T09:19:08;3.90;99.90
7192;DHT22;3637;51.494;11.958;2023-03-01T09:22:12;4.10;99.90
7192;DHT22;3637;51.494;11.958;2023-03-01T09:25:15;4.00;99.90
7192;DHT22;3637;51.494;11.958;2023-03-01T09:28:18;4.40;99.90
7192;DHT22;3637;51.494;11.958;2023-03-01T09:31:28;4.10;99.90
7192;DHT22;3637;51.494;11.958;2023-03-01T09:34:30;5.10;99.90
7192;DHT22;3637;51.494;11.958;2023-03-01T09:37:33;4.90;99.60
7192;DHT22;3637;51.494;11.958;2023-03-01T09:40:35;4.30;98.80
7192;DHT22;3637;51.494;11.958;2023-03-01T09:43:43;4.30;98.70
7192;DHT22;3637;51.494;11.958;2023-03-01T09:46:46;4.40;99.10
7192;DHT22;3637;51.494;11.958;2023-03-01T09:49:57;4.80;99.60
7192;DHT22;3637;51.494;11.958;2023-03-01T09:53:02;4.30;98.90
7192;DHT22;3637;51.494;11.958;2023-03-01T09:56:12;4.40;98.80
7192;DHT22;3637;51.494;11.958;2023-03-01T09:59:25;4.50;98.40
7192;DHT22;3637;51.494;11.958;2023-03-01T10:02:34;4.50;98.60
7192;DHT22;3637;51.494;11.958;2023-03-01T10:05:47;4.40;98.60
7192;DHT22;3637;51.494;11.958;2023-03-01T10:08:54;4.40;99.10
7192;DHT22;3637;51.494;11.958;2023-03-01T10:12:00;5.40;99.40
7192;DHT22;3637;51.494;11.958;2023-03-01T10:15:06;4.50;99.00
7192;DHT22;3637;51.494;11.958;2023-03-01T10:18:13;4.60;99.20
7192;DHT22;3637;51.494;11.958;2023-03-01T10:21:19;4.60;99.00
7192;DHT22;3637;51.494;11.958;2023-03-01T10:24:21;4.90;99.20
7192;DHT22;3637;51.494;11.958;2023-03-01T10:27:25;4.90;99.10
7192;DHT22;3637;51.494;11.958;2023-03-01T10:30:34;4.70;99.10
7192;DHT22;3637;51.494;11.958;2023-03-01T10:33:39;4.90;99.10
7192;DHT22;3637;51.494;11.958;2023-03-01T10:36:43;4.80;99.10
7192;DHT22;3637;51.494;11.958;2023-03-01T10:40:00;4.80;99.30
7192;DHT22;3637;51.494;11.958;2023-03-01T10:43:06;4.90;98.90
7192;DHT22;3637;51.494;11.958;2023-03-01T10:46:25;5.60;99.50
7192;DHT22;3637;51.494;11.958;2023-03-01T10:49:27;5.10;99.20
7192;DHT22;3637;51.494;11.958;2023-03-01T10:52:32;5.20;98.90
7192;DHT22;3637;51.494;11.958;2023-03-01T10:55:37;5.20;98.60
7192;DHT22;3637;51.494;11.958;2023-03-01T10:58:41;5.30;98.90
7192;DHT22;3637;51.494;11.958;2023-03-01T11:01:45;5.50;99.00
7192;DHT22;3637;51.494;11.958;2023-03-01T11:05:00;5.20;98.10
7192;DHT22;3637;51.494;11.958;2023-03-01T11:08:02;5.20;96.30
7192;DHT22;3637;51.494;11.958;2023-03-01T11:11:12;5.20;95.70
7192;DHT22;3637;51.494;11.958;2023-03-01T11:14:16;5.40;95.50
7192;DHT22;3637;51.494;11.958;2023-03-01T11:17:23;5.10;95.80
7192;DHT22;3637;51.494;11.958;2023-03-01T11:20:29;5.20;96.00
7192;DHT22;3637;51.494;11.958;2023-03-01T11:23:33;6.10;95.20
7192;DHT22;3637;51.494;11.958;2023-03-01T11:26:38;5.90;95.00
7192;DHT22;3637;51.494;11.958;2023-03-01T11:29:46;5.90;94.20
7192;DHT22;3637;51.494;11.958;2023-03-01T11:33:03;6.40;94.00
7192;DHT22;3637;51.494;11.958;2023-03-01T11:36:16;6.10;94.10
7192;DHT22;3637;51.494;11.958;2023-03-01T11:39:30;6.00;93.60
7192;DHT22;3637;51.494;11.958;2023-03-01T11:42:43;6.10;92.10
7192;DHT22;3637;51.494;11.958;2023-03-01T11:49:39;6.30;92.60
7192;DHT22;3637;51.494;11.958;2023-03-01T11:52:56;6.40;90.60
7192;DHT22;3637;51.494;11.958;2023-03-01T11:56:10;6.50;88.60
7192;DHT22;3637;51.494;11.958;2023-03-01T11:59:38;6.50;87.60
7192;DHT22;3637;51.494;11.958;2023-03-01T12:03:16;6.60;85.30
7192;DHT22;3637;51.494;11.958;2023-03-01T12:06:42;7.10;84.30
7192;DHT22;3637;51.494;11.958;2023-03-01T12:10:04;6.50;84.30
7192;DHT22;3637;51.494;11.958;2023-03-01T12:13:35;6.40;85.10
7192;DHT22;3637;51.494;11.958;2023-03-01T12:16:59;6.30;84.80
7192;DHT22;3637;51.494;11.958;2023-03-01T12:20:14;6.50;86.10
7192;DHT22;3637;51.494;11.958;2023-03-01T12:23:35;6.40;83.50
7192;DHT22;3637;51.494;11.958;2023-03-01T12:26:50;5.90;81.70
7192;DHT22;3637;51.494;11.958;2023-03-01T12:30:03;6.50;83.20
7192;DHT22;3637;51.494;11.958;2023-03-01T12:33:29;7.20;80.10
7192;DHT22;3637;51.494;11.958;2023-03-01T12:36:44;6.60;80.40
7192;DHT22;3637;51.494;11.958;2023-03-01T12:40:10;6.70;80.10
7192;DHT22;3637;51.494;11.958;2023-03-01T12:43:25;7.60;79.80
7192;DHT22;3637;51.494;11.958;2023-03-01T12:46:38;6.90;78.20
7192;DHT22;3637;51.494;11.958;2023-03-01T12:49:46;6.50;78.60
7192;DHT22;3637;51.494;11.958;2023-03-01T12:52:52;6.50;77.90
7192;DHT22;3637;51.494;11.958;2023-03-01T12:55:58;7.40;78.00
7192;DHT22;3637;51.494;11.958;2023-03-01T12:59:09;6.60;78.80
7192;DHT22;3637;51.494;11.958;2023-03-01T13:02:19;6.70;77.90
7192;DHT22;3637;51.494;11.958;2023-03-01T13:05:33;6.60;76.90
7192;DHT22;3637;51.494;11.958;2023-03-01T13:08:42;7.00;77.60
7192;DHT22;3637;51.494;11.958;2023-03-01T13:11:46;6.60;78.20
7192;DHT22;3637;51.494;11.958;2023-03-01T13:14:48;8.20;79.20
7192;DHT22;3637;51.494;11.958;2023-03-01T13:17:52;7.30;76.50
7192;DHT22;3637;51.494;11.958;2023-03-01T13:20:58;6.90;75.90
7192;DHT22;3637;51.494;11.958;2023-03-01T13:24:00;6.90;76.70
7192;DHT22;3637;51.494;11.958;2023-03-01T13:27:21;7.10;76.30
7192;DHT22;3637;51.494;11.958;2023-03-01T13:30:40;6.90;74.90
7192;DHT22;3637;51.494;11.958;2023-03-01T13:33:44;6.90;73.50
7192;DHT22;3637;51.494;11.958;2023-03-01T13:36:48;7.10;74.10
7192;DHT22;3637;51.494;11.958;2023-03-01T13:39:50;6.90;74.70
7192;DHT22;3637;51.494;11.958;2023-03-01T13:42:54;6.90;74.40
7192;DHT22;3637;51.494;11.958;2023-03-01T13:45:57;6.90;72.80
7192;DHT22;3637;51.494;11.958;2023-03-01T13:49:00;7.00;72.10
7192;DHT22;3637;51.494;11.958;2023-03-01T13:52:02;7.40;72.00
7192;DHT22;3637;51.494;11.958;2023-03-01T13:55:10;6.90;72.40
7192;DHT22;3637;51.494;11.958;2023-03-01T13:58:23;6.90;73.60
7192;DHT22;3637;51.494;11.958;2023-03-01T14:01:28;6.90;72.70
7192;DHT22;3637;51.494;11.958;2023-03-01T14:04:32;7.40;71.80
7192;DHT22;3637;51.494;11.958;2023-03-01T14:07:36;7.00;72.00
7192;DHT22;3637;51.494;11.958;2023-03-01T14:10:54;7.00;70.40
7192;DHT22;3637;51.494;11.958;2023-03-01T14:14:21;7.00;70.40
7192;DHT22;3637;51.494;11.958;2023-03-01T14:17:40;7.00;70.30
7192;DHT22;3637;51.494;11.958;2023-03-01T14:20:44;7.00;70.10
7192;DHT22;3637;51.494;11.958;2023-03-01T14:23:52;7.00;68.90
7192;DHT22;3637;51.494;11.958;2023-03-01T14:26:54;7.00;66.70
7192;DHT22;3637;51.494;11.958;2023-03-01T14:30:01;7.00;66.20
7192;DHT22;3637;51.494;11.958;2023-03-01T14:33:05;7.10;66.70
7192;DHT22;3637;51.494;11.958;2023-03-01T14:36:09;7.50;67.50
7192;DHT22;3637;51.494;11.958;2023-03-01T14:39:17;7.40;66.70
7192;DHT22;3637;51.494;11.958;2023-03-01T14:42:24;7.20;68.10
7192;DHT22;3637;51.494;11.958;2023-03-01T14:45:29;7.10;69.00
7192;DHT22;3637;51.494;11.958;2023-03-01T14:48:32;7.50;66.40
7192;DHT22;3637;51.494;11.958;2023-03-01T14:51:41;8.20;69.30
7192;DHT22;3637;51.494;11.958;2023-03-01T14:54:46;7.20;69.60
7192;DHT22;3637;51.494;11.958;2023-03-01T14:57:50;7.40;70.10
7192;DHT22;3637;51.494;11.958;2023-03-01T15:00:59;7.50;68.70
7192;DHT22;3637;51.494;11.958;2023-03-01T15:04:01;7.30;68.20
7192;DHT22;3637;51.494;11.958;2023-03-01T15:07:12;7.10;68.60
7192;DHT22;3637;51.494;11.958;2023-03-01T15:10:21;7.20;68.80
7192;DHT22;3637;51.494;11.958;2023-03-01T15:13:29;6.80;67.00
7192;DHT22;3637;51.494;11.958;2023-03-01T15:16:45;6.90;66.20
7192;DHT22;3637;51.494;11.958;2023-03-01T15:19:49;7.50;66.60
7192;DHT22;3637;51.494;11.958;2023-03-01T15:22:55;6.90;66.60
7192;DHT22;3637;51.494;11.958;2023-03-01T15:26:00;7.40;68.00
7192;DHT22;3637;51.494;11.958;2023-03-01T15:29:04;6.50;67.70
7192;DHT22;3637;51.494;11.958;2023-03-01T15:32:28;7.00;67.50
7192;DHT22;3637;51.494;11.958;2023-03-01T15:35:41;7.20;69.50
7192;DHT22;3637;51.494;11.958;2023-03-01T15:38:52;6.30;70.40
7192;DHT22;3637;51.494;11.958;2023-03-01T15:41:57;7.40;71.80
7192;DHT22;3637;51.494;11.958;2023-03-01T15:45:20;7.40;72.00
7192;DHT22;3637;51.494;11.958;2023-03-01T15:48:23;6.80;71.70
7192;DHT22;3637;51.494;11.958;2023-03-01T15:51:33;7.40;72.10
7192;DHT22;3637;51.494;11.958;2023-03-01T15:54:50;7.10;72.70
7192;DHT22;3637;51.494;11.958;2023-03-01T15:58:00;6.50;72.50
7192;DHT22;3637;51.494;11.958;2023-03-01T16:01:11;6.70;72.90
7192;DHT22;3637;51.494;11.958;2023-03-01T16:04:18;5.80;72.50
7192;DHT22;3637;51.494;11.958;2023-03-01T16:07:26;6.60;74.00
7192;DHT22;3637;51.494;11.958;2023-03-01T16:10:29;6.60;72.20
7192;DHT22;3637;51.494;11.958;2023-03-01T16:13:34;6.50;72.80
7192;DHT22;3637;51.494;11.958;2023-03-01T16:16:39;6.50;74.00
7192;DHT22;3637;51.494;11.958;2023-03-01T16:19:42;6.50;74.10
7192;DHT22;3637;51.494;11.958;2023-03-01T16:22:54;6.80;74.50
7192;DHT22;3637;51.494;11.958;2023-03-01T16:25:59;6.60;75.20
7192;DHT22;3637;51.494;11.958;2023-03-01T16:29:06;6.40;75.70
7192;DHT22;3637;51.494;11.958;2023-03-01T16:32:14;6.60;76.50
7192;DHT22;3637;51.494;11.958;2023-03-01T16:35:20;6.20;77.40
7192;DHT22;3637;51.494;11.958;2023-03-01T16:38:23;6.90;77.60
7192;DHT22;3637;51.494;11.958;2023-03-01T16:41:27;6.10;77.60
7192;DHT22;3637;51.494;11.958;2023-03-01T16:44:29;6.10;78.50
7192;DHT22;3637;51.494;11.958;2023-03-01T16:47:31;6.20;78.50
7192;DHT22;3637;51.494;11.958;2023-03-01T16:50:36;6.30;79.10
7192;DHT22;3637;51.494;11.958;2023-03-01T16:53:38;6.00;79.20
7192;DHT22;3637;51.494;11.958;2023-03-01T16:56:41;5.90;79.70
7192;DHT22;3637;51.494;11.958;2023-03-01T16:59:44;6.00;79.90
7192;DHT22;3637;51.494;11.958;2023-03-01T17:02:46;5.90;80.20
7192;DHT22;3637;51.494;11.958;2023-03-01T17:09:12;5.80;81.50
7192;DHT22;3637;51.494;11.958;2023-03-01T17:12:15;5.90;82.00
7192;DHT22;3637;51.494;11.958;2023-03-01T17:15:17;5.70;82.70
7192;DHT22;3637;51.494;11.958;2023-03-01T17:18:21;5.60;83.10
7192;DHT22;3637;51.494;11.958;2023-03-01T17:21:26;5.60;83.70
7192;DHT22;3637;51.494;11.958;2023-03-01T17:24:32;6.30;84.00
7192;DHT22;3637;51.494;11.958;2023-03-01T17:27:37;5.70;84.80
7192;DHT22;3637;51.494;11.958;2023-03-01T17:30:41;5.40;85.00
7192;DHT22;3637;51.494;11.958;2023-03-01T17:33:47;5.40;85.30
7192;DHT22;3637;51.494;11.958;2023-03-01T17:37:14;6.50;86.00
7192;DHT22;3637;51.494;11.958;2023-03-01T17:40:25;5.30;86.10
7192;DHT22;3637;51.494;11.958;2023-03-01T17:43:28;4.80;84.60
7192;DHT22;3637;51.494;11.958;2023-03-01T17:46:34;5.20;85.00
7192;DHT22;3637;51.494;11.958;2023-03-01T17:49:35;5.40;85.60
7192;DHT22;3637;51.494;11.958;2023-03-01T17:52:39;5.40;86.00
7192;DHT22;3637;51.494;11.958;2023-03-01T17:55:43;5.20;86.10
7192;DHT22;3637;51.494;11.958;2023-03-01T17:58:45;5.00;86.20
7192;DHT22;3637;51.494;11.958;2023-03-01T18:01:49;5.00;86.80
7192;DHT22;3637;51.494;11.958;2023-03-01T18:04:52;4.90;86.00
7192;DHT22;3637;51.494;11.958;2023-03-01T18:08:02;4.90;86.40
7192;DHT22;3637;51.494;11.958;2023-03-01T18:11:04;4.90;86.30
7192;DHT22;3637;51.494;11.958;2023-03-01T18:14:07;5.10;87.60
7192;DHT22;3637;51.494;11.958;2023-03-01T18:17:09;5.30;88.00
7192;DHT22;3637;51.494;11.958;2023-03-01T18:20:19;4.80;86.20
7192;DHT22;3637;51.494;11.958;2023-03-01T18:23:57;5.00;85.90
7192;DHT22;3637;51.494;11.958;2023-03-01T18:27:05;4.40;85.50
7192;DHT22;3637;51.494;11.958;2023-03-01T18:30:18;4.60;86.40
7192;DHT22;3637;51.494;11.958;2023-03-01T18:37:28;4.60;87.10
7192;DHT22;3637;51.494;11.958;2023-03-01T18:40:31;4.80;89.90
7192;DHT22;3637;51.494;11.958;2023-03-01T18:43:35;4.60;89.30
7192;DHT22;3637;51.494;11.958;2023-03-01T18:46:37;5.10;88.50
7192;DHT22;3637;51.494;11.958;2023-03-01T18:49:39;4.50;88.00
7192;DHT22;3637;51.494;11.958;2023-03-01T18:52:43;3.70;87.40
7192;DHT22;3637;51.494;11.958;2023-03-01T18:55:49;5.50;88.50
7192;DHT22;3637;51.494;11.958;2023-03-01T18:58:51;4.40;87.40
7192;DHT22;3637;51.494;11.958;2023-03-01T19:01:52;4.30;86.50
7192;DHT22;3637;51.494;11.958;2023-03-01T19:04:59;4.40;86.80
7192;DHT22;3637;51.494;11.958;2023-03-01T19:08:01;4.40;87.80
7192;DHT22;3637;51.494;11.958;2023-03-01T19:11:05;4.40;88.00
7192;DHT22;3637;51.494;11.958;2023-03-01T19:14:08;4.70;89.60
7192;DHT22;3637;51.494;11.958;2023-03-01T19:17:13;5.00;90.20
7192;DHT22;3637;51.494;11.958;2023-03-01T19:20:17;4.20;91.20
7192;DHT22;3637;51.494;11.958;2023-03-01T19:23:19;4.00;92.60
7192;DHT22;3637;51.494;11.958;2023-03-01T19:26:26;4.00;93.20
7192;DHT22;3637;51.494;11.958;2023-03-01T19:29:28;4.00;93.80
7192;DHT22;3637;51.494;11.958;2023-03-01T19:32:33;3.80;94.50
7192;DHT22;3637;51.494;11.958;2023-03-01T19:35:37;3.70;95.50
7192;DHT22;3637;51.494;11.958;2023-03-01T19:38:42;3.60;95.60
7192;DHT22;3637;51.494;11.958;2023-03-01T19:41:45;3.70;95.60
7192;DHT22;3637;51.494;11.958;2023-03-01T19:44:47;3.50;95.70
7192;DHT22;3637;51.494;11.958;2023-03-01T19:47:49;3.40;96.20
7192;DHT22;3637;51.494;11.958;2023-03-01T19:50:52;3.40;96.30
7192;DHT22;3637;51.494;11.958;2023-03-01T19:53:54;3.40;97.00
7192;DHT22;3637;51.494;11.958;2023-03-01T19:57:00;4.70;98.10
7192;DHT22;3637;51.494;11.958;2023-03-01T20:00:03;3.20;98.10
7192;DHT22;3637;51.494;11.958;2023-03-01T20:03:08;3.10;98.00
7192;DHT22;3637;51.494;11.958;2023-03-01T20:06:12;3.00;97.10
7192;DHT22;3637;51.494;11.958;2023-03-01T20:09:17;3.20;97.20
7192;DHT22;3637;51.494;11.958;2023-03-01T20:12:21;3.60;97.20
7192;DHT22;3637;51.494;11.958;2023-03-01T20:15:23;3.10;97.20
7192;DHT22;3637;51.494;11.958;2023-03-01T20:18:25;3.10;97.70
7192;DHT22;3637;51.494;11.958;2023-03-01T20:21:30;3.10;98.10
7192;DHT22;3637;51.494;11.958;2023-03-01T20:24:32;2.90;98.60